sensor_id;sensor_type;location;lat;lon;timestamp;pressure;altitude;pressure_sealevel;temperature;humidity
77019;BME280;66044;53.142;17.962;2023-04-30T00:01:55;101055.90;;;7.94;64.87
77019;BME280;66044;53.142;17.962;2023-04-30T00:04:21;101054.58;;;7.90;64.91
77019;BME280;66044;53.142;17.962;2023-04-30T00:06:48;101059.67;;;7.87;65.28
77019;BME280;66044;53.142;17.962;2023-04-30T00:09:14;101059.59;;;7.83;64.97
77019;BME280;66044;53.142;17.962;2023-04-30T00:11:41;101062.14;;;7.79;65.20
77019;BME280;66044;53.142;17.962;2023-04-30T00:14:07;101069.05;;;7.74;65.09
77019;BME280;66044;53.142;17.962;2023-04-30T00:16:35;101075.08;;;7.70;65.39
77019;BME280;66044;53.142;17.962;2023-04-30T00:19:02;101077.83;;;7.66;65.31
77019;BME280;66044;53.142;17.962;2023-04-30T00:21:31;101081.36;;;7.63;65.31
77019;BME280;66044;53.142;17.962;2023-04-30T00:23:58;101087.55;;;7.59;65.21
77019;BME280;66044;53.142;17.962;2023-04-30T00:26:28;101089.26;;;7.55;65.47
77019;BME280;66044;53.142;17.962;2023-04-30T00:28:54;101093.81;;;7.52;65.26
77019;BME280;66044;53.142;17.962;2023-04-30T00:31:21;101092.32;;;7.49;65.60
77019;BME280;66044;53.142;17.962;2023-04-30T00:33:47;101095.59;;;7.45;65.54
77019;BME280;66044;53.142;17.962;2023-04-30T00:36:14;101102.20;;;7.40;65.65
77019;BME280;66044;53.142;17.962;2023-04-30T00:38:40;101104.80;;;7.34;65.64
77019;BME280;66044;53.142;17.962;2023-04-30T00:41:07;101106.63;;;7.29;65.87
77019;BME280;66044;53.142;17.962;2023-04-30T00:43:33;101111.41;;;7.25;65.74
77019;BME280;66044;53.142;17.962;2023-04-30T00:45:59;101116.30;;;7.20;66.02
77019;BME280;66044;53.142;17.962;2023-04-30T00:48:26;101118.70;;;7.17;66.00
77019;BME280;66044;53.142;17.962;2023-04-30T00:50:53;101124.29;;;7.15;66.06
77019;BME280;66044;53.142;17.962;2023-04-30T00:53:19;101129.27;;;7.12;66.05
77019;BME280;66044;53.142;17.962;2023-04-30T00:55:47;101127.50;;;7.08;65.95
77019;BME280;66044;53.142;17.962;2023-04-30T00:58:14;101128.80;;;7.04;65.82
77019;BME280;66044;53.142;17.962;2023-04-30T01:00:41;101132.04;;;7.01;65.71
77019;BME280;66044;53.142;17.962;2023-04-30T01:03:12;101133.42;;;6.99;65.93
77019;BME280;66044;53.142;17.962;2023-04-30T01:05:39;101134.19;;;6.97;65.71
77019;BME280;66044;53.142;17.962;2023-04-30T01:08:06;101137.84;;;6.96;65.98
77019;BME280;66044;53.142;17.962;2023-04-30T01:13:35;101144.86;;;6.94;65.94
77019;BME280;66044;53.142;17.962;2023-04-30T01:16:17;101147.30;;;6.91;66.10
77019;BME280;66044;53.142;17.962;2023-04-30T01:18:51;101153.33;;;6.88;65.97
77019;BME280;66044;53.142;17.962;2023-04-30T01:21:20;101150.86;;;6.85;65.85
77019;BME280;66044;53.142;17.962;2023-04-30T01:23:56;101150.61;;;6.80;66.00
77019;BME280;66044;53.142;17.962;2023-04-30T01:29:33;101154.35;;;6.72;66.13
77019;BME280;66044;53.142;17.962;2023-04-30T01:32:01;101159.81;;;6.67;66.20
77019;BME280;66044;53.142;17.962;2023-04-30T01:34:28;101156.20;;;6.61;66.08
77019;BME280;66044;53.142;17.962;2023-04-30T01:45:34;101169.16;;;6.53;66.17
77019;BME280;66044;53.142;17.962;2023-04-30T01:51:07;101181.33;;;6.49;66.27
77019;BME280;66044;53.142;17.962;2023-04-30T01:53:41;101186.48;;;6.47;66.47
77019;BME280;66044;53.142;17.962;2023-04-30T01:56:21;101187.70;;;6.43;66.31
77019;BME280;66044;53.142;17.962;2023-04-30T01:58:48;101193.73;;;6.38;66.34
77019;BME280;66044;53.142;17.962;2023-04-30T02:01:26;101191.53;;;6.34;66.53
77019;BME280;66044;53.142;17.962;2023-04-30T02:03:53;101194.15;;;6.30;66.39
77019;BME280;66044;53.142;17.962;2023-04-30T02:06:19;101197.48;;;6.27;66.40
77019;BME280;66044;53.142;17.962;2023-04-30T02:08:46;101195.41;;;6.23;66.44
77019;BME280;66044;53.142;17.962;2023-04-30T02:11:12;101195.23;;;6.18;66.51
77019;BME280;66044;53.142;17.962;2023-04-30T02:13:39;101193.15;;;6.15;66.51
77019;BME280;66044;53.142;17.962;2023-04-30T02:16:06;101192.69;;;6.12;66.60
77019;BME280;66044;53.142;17.962;2023-04-30T02:18:32;101196.54;;;6.10;66.65
77019;BME280;66044;53.142;17.962;2023-04-30T02:20:58;101202.13;;;6.08;66.66
77019;BME280;66044;53.142;17.962;2023-04-30T02:23:25;101207.09;;;6.07;66.67
77019;BME280;66044;53.142;17.962;2023-04-30T02:25:51;101210.34;;;6.08;66.65
77019;BME280;66044;53.142;17.962;2023-04-30T02:28:18;101211.84;;;6.08;66.68
77019;BME280;66044;53.142;17.962;2023-04-30T02:30:44;101211.13;;;6.09;66.69
77019;BME280;66044;53.142;17.962;2023-04-30T02:33:11;101208.63;;;6.08;66.70
77019;BME280;66044;53.142;17.962;2023-04-30T02:35:39;101209.97;;;6.07;66.76
77019;BME280;66044;53.142;17.962;2023-04-30T02:38:06;101208.49;;;6.05;66.64
77019;BME280;66044;53.142;17.962;2023-04-30T02:40:32;101211.29;;;6.02;66.70
77019;BME280;66044;53.142;17.962;2023-04-30T02:42:59;101210.54;;;5.98;66.83
77019;BME280;66044;53.142;17.962;2023-04-30T02:45:26;101215.88;;;5.92;66.89
77019;BME280;66044;53.142;17.962;2023-04-30T02:47:53;101216.38;;;5.85;67.03
77019;BME280;66044;53.142;17.962;2023-04-30T02:50:19;101217.08;;;5.78;67.21
77019;BME280;66044;53.142;17.962;2023-04-30T02:52:46;101222.83;;;5.73;67.14
77019;BME280;66044;53.142;17.962;2023-04-30T02:55:12;101228.09;;;5.69;67.18
77019;BME280;66044;53.142;17.962;2023-04-30T02:57:39;101228.50;;;5.64;67.27
77019;BME280;66044;53.142;17.962;2023-04-30T03:00:06;101224.31;;;5.59;67.56
77019;BME280;66044;53.142;17.962;2023-04-30T03:02:32;101231.63;;;5.57;67.52
77019;BME280;66044;53.142;17.962;2023-04-30T03:04:59;101231.80;;;5.56;67.50
77019;BME280;66044;53.142;17.962;2023-04-30T03:07:25;101234.32;;;5.56;67.80
77019;BME280;66044;53.142;17.962;2023-04-30T03:09:52;101234.86;;;5.54;67.67
77019;BME280;66044;53.142;17.962;2023-04-30T03:12:18;101233.13;;;5.50;67.81
77019;BME280;66044;53.142;17.962;2023-04-30T03:14:44;101242.21;;;5.48;67.81
77019;BME280;66044;53.142;17.962;2023-04-30T03:17:11;101243.66;;;5.46;67.82
77019;BME280;66044;53.142;17.962;2023-04-30T03:19:37;101244.95;;;5.43;67.80
77019;BME280;66044;53.142;17.962;2023-04-30T03:22:04;101248.66;;;5.41;67.89
77019;BME280;66044;53.142;17.962;2023-04-30T03:24:30;101258.09;;;5.39;67.91
77019;BME280;66044;53.142;17.962;2023-04-30T03:26:57;101255.49;;;5.36;67.95
77019;BME280;66044;53.142;17.962;2023-04-30T03:29:23;101259.15;;;5.32;67.98
77019;BME280;66044;53.142;17.962;2023-04-30T03:31:50;101261.77;;;5.28;68.08
77019;BME280;66044;53.142;17.962;2023-04-30T03:34:16;101265.89;;;5.26;68.17
77019;BME280;66044;53.142;17.962;2023-04-30T03:36:42;101264.52;;;5.25;68.17
77019;BME280;66044;53.142;17.962;2023-04-30T03:39:09;101269.95;;;5.24;68.06
77019;BME280;66044;53.142;17.962;2023-04-30T03:41:36;101274.91;;;5.26;67.96
77019;BME280;66044;53.142;17.962;2023-04-30T03:44:03;101274.13;;;5.28;68.13
77019;BME280;66044;53.142;17.962;2023-04-30T03:46:29;101276.79;;;5.29;68.09
77019;BME280;66044;53.142;17.962;2023-04-30T03:48:56;101278.39;;;5.30;68.19
77019;BME280;66044;53.142;17.962;2023-04-30T03:51:22;101280.23;;;5.32;67.91
77019;BME280;66044;53.142;17.962;2023-04-30T03:53:49;101288.89;;;5.36;68.22
77019;BME280;66044;53.142;17.962;2023-04-30T03:56:15;101291.69;;;5.41;68.01
77019;BME280;66044;53.142;17.962;2023-04-30T03:58:42;101291.67;;;5.44;68.00
77019;BME280;66044;53.142;17.962;2023-04-30T04:01:08;101294.59;;;5.48;67.93
77019;BME280;66044;53.142;17.962;2023-04-30T04:03:34;101295.46;;;5.51;68.03
77019;BME280;66044;53.142;17.962;2023-04-30T04:06:01;101298.87;;;5.54;67.91
77019;BME280;66044;53.142;17.962;2023-04-30T04:08:28;101302.77;;;5.58;67.86
77019;BME280;66044;53.142;17.962;2023-04-30T04:10:55;101306.91;;;5.62;67.86
77019;BME280;66044;53.142;17.962;2023-04-30T04:13:21;101310.05;;;5.70;67.75
77019;BME280;66044;53.142;17.962;2023-04-30T04:15:48;101315.55;;;5.78;67.70
77019;BME280;66044;53.142;17.962;2023-04-30T04:18:14;101316.98;;;5.88;67.51
77019;BME280;66044;53.142;17.962;2023-04-30T04:20:40;101315.10;;;5.99;67.26
77019;BME280;66044;53.142;17.962;2023-04-30T04:23:07;101321.35;;;6.11;67.04
77019;BME280;66044;53.142;17.962;2023-04-30T04:25:33;101326.04;;;6.25;67.06
77019;BME280;66044;53.142;17.962;2023-04-30T04:28:00;101329.73;;;6.41;66.62
77019;BME280;66044;53.142;17.962;2023-04-30T04:30:27;101334.51;;;6.61;66.51
77019;BME280;66044;53.142;17.962;2023-04-30T04:32:53;101335.66;;;6.87;65.96
77019;BME280;66044;53.142;17.962;2023-04-30T04:35:19;101340.30;;;7.73;65.19
77019;BME280;66044;53.142;17.962;2023-04-30T04:37:46;101350.71;;;9.97;62.30
77019;BME280;66044;53.142;17.962;2023-04-30T04:40:13;101355.70;;;12.41;59.31
77019;BME280;66044;53.142;17.962;2023-04-30T04:42:39;101359.44;;;14.67;56.42
77019;BME280;66044;53.142;17.962;2023-04-30T04:45:06;101369.56;;;16.74;53.48
77019;BME280;66044;53.142;17.962;2023-04-30T04:47:33;101374.62;;;18.63;50.33
77019;BME280;66044;53.142;17.962;2023-04-30T04:50:00;101385.65;;;20.32;47.26
77019;BME280;66044;53.142;17.962;2023-04-30T04:52:26;101390.45;;;21.89;44.27
77019;BME280;66044;53.142;17.962;2023-04-30T04:54:53;101391.36;;;23.30;41.06
77019;BME280;66044;53.142;17.962;2023-04-30T04:57:19;101399.38;;;24.45;38.97
77019;BME280;66044;53.142;17.962;2023-04-30T04:59:46;101403.82;;;25.61;36.87
77019;BME280;66044;53.142;17.962;2023-04-30T05:02:12;101413.19;;;26.64;34.84
77019;BME280;66044;53.142;17.962;2023-04-30T05:04:39;101415.68;;;27.57;33.21
77019;BME280;66044;53.142;17.962;2023-04-30T05:07:05;101419.61;;;28.52;32.13
77019;BME280;66044;53.142;17.962;2023-04-30T05:09:33;101426.52;;;29.49;30.72
77019;BME280;66044;53.142;17.962;2023-04-30T05:11:59;101426.42;;;30.32;28.91
77019;BME280;66044;53.142;17.962;2023-04-30T05:14:26;101431.65;;;31.06;27.51
77019;BME280;66044;53.142;17.962;2023-04-30T05:16:52;101437.71;;;31.73;26.98
77019;BME280;66044;53.142;17.962;2023-04-30T05:19:19;101440.35;;;32.54;26.27
77019;BME280;66044;53.142;17.962;2023-04-30T05:21:45;101442.91;;;33.38;25.14
77019;BME280;66044;53.142;17.962;2023-04-30T05:24:12;101450.02;;;34.17;24.15
77019;BME280;66044;53.142;17.962;2023-04-30T05:26:38;101452.58;;;34.82;23.22
77019;BME280;66044;53.142;17.962;2023-04-30T05:29:04;101456.98;;;35.44;22.41
77019;BME280;66044;53.142;17.962;2023-04-30T05:31:31;101459.77;;;36.07;21.60
77019;BME280;66044;53.142;17.962;2023-04-30T05:33:58;101468.09;;;36.64;21.03
77019;BME280;66044;53.142;17.962;2023-04-30T05:36:24;101470.35;;;37.28;20.32
77019;BME280;66044;53.142;17.962;2023-04-30T05:38:51;101466.78;;;37.84;19.60
77019;BME280;66044;53.142;17.962;2023-04-30T05:41:17;101470.77;;;38.33;19.10
77019;BME280;66044;53.142;17.962;2023-04-30T05:43:44;101473.08;;;38.63;18.45
77019;BME280;66044;53.142;17.962;2023-04-30T05:46:10;101473.38;;;38.89;18.12
77019;BME280;66044;53.142;17.962;2023-04-30T05:48:36;101474.81;;;39.26;17.58
77019;BME280;66044;53.142;17.962;2023-04-30T05:51:04;101477.97;;;39.58;17.12
77019;BME280;66044;53.142;17.962;2023-04-30T05:53:33;101481.31;;;40.06;17.04
77019;BME280;66044;53.142;17.962;2023-04-30T05:55:59;101482.70;;;40.31;16.09
77019;BME280;66044;53.142;17.962;2023-04-30T05:58:26;101491.50;;;40.35;16.04
77019;BME280;66044;53.142;17.962;2023-04-30T06:00:52;101489.55;;;40.67;15.82
77019;BME280;66044;53.142;17.962;2023-04-30T06:03:19;101496.23;;;41.11;15.24
77019;BME280;66044;53.142;17.962;2023-04-30T06:05:46;101498.90;;;41.08;14.97
77019;BME280;66044;53.142;17.962;2023-04-30T06:08:13;101498.80;;;41.23;14.82
77019;BME280;66044;53.142;17.962;2023-04-30T06:10:39;101500.70;;;41.69;14.83
77019;BME280;66044;53.142;17.962;2023-04-30T06:13:05;101503.84;;;42.33;14.51
77019;BME280;66044;53.142;17.962;2023-04-30T06:15:32;101504.66;;;42.76;14.03
77019;BME280;66044;53.142;17.962;2023-04-30T06:17:59;101503.33;;;43.05;13.83
77019;BME280;66044;53.142;17.962;2023-04-30T06:20:25;101504.30;;;43.42;13.46
77019;BME280;66044;53.142;17.962;2023-04-30T06:22:52;101503.55;;;43.58;13.13
77019;BME280;66044;53.142;17.962;2023-04-30T06:25:19;101506.45;;;43.78;12.74
77019;BME280;66044;53.142;17.962;2023-04-30T06:27:48;101507.31;;;43.78;12.50
77019;BME280;66044;53.142;17.962;2023-04-30T06:30:16;101507.22;;;43.95;12.43
77019;BME280;66044;53.142;17.962;2023-04-30T06:32:43;101506.80;;;43.95;12.24
77019;BME280;66044;53.142;17.962;2023-04-30T06:35:09;101506.73;;;43.99;12.08
77019;BME280;66044;53.142;17.962;2023-04-30T06:37:36;101507.38;;;44.04;11.97
77019;BME280;66044;53.142;17.962;2023-04-30T06:40:03;101507.32;;;44.04;11.99
77019;BME280;66044;53.142;17.962;2023-04-30T06:42:31;101506.13;;;44.22;11.79
77019;BME280;66044;53.142;17.962;2023-04-30T06:45:01;101506.85;;;44.48;11.83
77019;BME280;66044;53.142;17.962;2023-04-30T06:47:29;101508.09;;;45.15;11.64
77019;BME280;66044;53.142;17.962;2023-04-30T06:50:00;101509.15;;;45.82;11.30
77019;BME280;66044;53.142;17.962;2023-04-30T06:52:27;101512.86;;;46.18;10.97
77019;BME280;66044;53.142;17.962;2023-04-30T06:54:53;101512.45;;;46.18;10.71
77019;BME280;66044;53.142;17.962;2023-04-30T06:57:20;101510.77;;;46.27;10.56
77019;BME280;66044;53.142;17.962;2023-04-30T06:59:47;101518.31;;;45.95;10.50
77019;BME280;66044;53.142;17.962;2023-04-30T07:02:13;101519.60;;;46.23;10.57
77019;BME280;66044;53.142;17.962;2023-04-30T07:04:39;101521.22;;;46.70;10.35
77019;BME280;66044;53.142;17.962;2023-04-30T07:07:06;101520.77;;;47.12;10.27
77019;BME280;66044;53.142;17.962;2023-04-30T07:09:33;101525.11;;;47.36;9.97
77019;BME280;66044;53.142;17.962;2023-04-30T07:11:59;101523.11;;;47.51;9.85
77019;BME280;66044;53.142;17.962;2023-04-30T07:14:26;101523.83;;;47.83;9.74
77019;BME280;66044;53.142;17.962;2023-04-30T07:16:52;101525.59;;;48.17;9.57
77019;BME280;66044;53.142;17.962;2023-04-30T07:19:19;101523.19;;;48.71;9.42
77019;BME280;66044;53.142;17.962;2023-04-30T07:21:45;101520.71;;;49.07;8.79
77019;BME280;66044;53.142;17.962;2023-04-30T07:24:12;101528.65;;;49.50;8.80
77019;BME280;66044;53.142;17.962;2023-04-30T07:26:38;101531.55;;;49.90;8.75
77019;BME280;66044;53.142;17.962;2023-04-30T07:29:05;101529.61;;;50.12;8.43
77019;BME280;66044;53.142;17.962;2023-04-30T07:31:31;101529.87;;;50.13;8.29
77019;BME280;66044;53.142;17.962;2023-04-30T07:33:59;101531.85;;;49.83;8.00
77019;BME280;66044;53.142;17.962;2023-04-30T07:36:25;101530.67;;;49.17;8.21
77019;BME280;66044;53.142;17.962;2023-04-30T07:38:52;101532.63;;;48.89;8.35
77019;BME280;66044;53.142;17.962;2023-04-30T07:41:19;101535.15;;;48.68;8.29
77019;BME280;66044;53.142;17.962;2023-04-30T07:43:45;101533.56;;;48.62;8.44
77019;BME280;66044;53.142;17.962;2023-04-30T07:46:12;101534.77;;;48.52;8.42
77019;BME280;66044;53.142;17.962;2023-04-30T07:48:38;101533.50;;;48.06;8.49
77019;BME280;66044;53.142;17.962;2023-04-30T07:51:05;101539.23;;;47.54;8.43
77019;BME280;66044;53.142;17.962;2023-04-30T07:53:31;101533.05;;;47.17;8.77
77019;BME280;66044;53.142;17.962;2023-04-30T07:55:57;101534.86;;;46.42;8.75
77019;BME280;66044;53.142;17.962;2023-04-30T07:58:24;101534.11;;;45.39;9.05
77019;BME280;66044;53.142;17.962;2023-04-30T08:00:50;101527.31;;;44.29;9.04
77019;BME280;66044;53.142;17.962;2023-04-30T08:03:20;101533.00;;;42.68;9.49
77019;BME280;66044;53.142;17.962;2023-04-30T08:05:46;101525.34;;;40.20;10.32
77019;BME280;66044;53.142;17.962;2023-04-30T08:08:12;101516.22;;;37.63;11.35
77019;BME280;66044;53.142;17.962;2023-04-30T08:10:39;101511.35;;;35.21;12.54
77019;BME280;66044;53.142;17.962;2023-04-30T08:13:07;101507.83;;;32.99;13.63
77019;BME280;66044;53.142;17.962;2023-04-30T08:15:33;101504.98;;;31.08;14.53
77019;BME280;66044;53.142;17.962;2023-04-30T08:18:01;101498.48;;;29.41;15.78
77019;BME280;66044;53.142;17.962;2023-04-30T08:20:27;101502.73;;;27.96;16.81
77019;BME280;66044;53.142;17.962;2023-04-30T08:22:54;101501.28;;;26.71;17.50
77019;BME280;66044;53.142;17.962;2023-04-30T08:25:20;101498.40;;;25.62;18.55
77019;BME280;66044;53.142;17.962;2023-04-30T08:27:46;101497.48;;;24.80;19.07
77019;BME280;66044;53.142;17.962;2023-04-30T08:30:13;101499.04;;;23.87;19.75
77019;BME280;66044;53.142;17.962;2023-04-30T08:32:39;101505.33;;;23.01;20.46
77019;BME280;66044;53.142;17.962;2023-04-30T08:35:07;101501.66;;;22.27;21.20
77019;BME280;66044;53.142;17.962;2023-04-30T08:37:34;101502.98;;;21.72;21.60
77019;BME280;66044;53.142;17.962;2023-04-30T08:40:00;101506.96;;;21.13;22.25
77019;BME280;66044;53.142;17.962;2023-04-30T08:42:30;101516.09;;;20.60;22.76
77019;BME280;66044;53.142;17.962;2023-04-30T08:45:02;101515.94;;;20.12;23.18
77019;BME280;66044;53.142;17.962;2023-04-30T08:47:29;101514.46;;;19.78;23.41
77019;BME280;66044;53.142;17.962;2023-04-30T08:49:56;101509.97;;;19.46;23.86
77019;BME280;66044;53.142;17.962;2023-04-30T08:52:23;101508.49;;;19.05;24.67
77019;BME280;66044;53.142;17.962;2023-04-30T08:54:51;101510.89;;;18.78;25.12
77019;BME280;66044;53.142;17.962;2023-04-30T08:57:17;101517.90;;;18.63;24.92
77019;BME280;66044;53.142;17.962;2023-04-30T08:59:44;101518.24;;;18.35;24.89
77019;BME280;66044;53.142;17.962;2023-04-30T09:02:12;101516.14;;;18.13;25.11
77019;BME280;66044;53.142;17.962;2023-04-30T09:04:39;101512.24;;;17.94;25.67
77019;BME280;66044;53.142;17.962;2023-04-30T09:07:05;101513.02;;;17.80;25.95
77019;BME280;66044;53.142;17.962;2023-04-30T09:09:37;101515.84;;;17.63;26.52
77019;BME280;66044;53.142;17.962;2023-04-30T09:12:14;101523.70;;;17.48;26.14
77019;BME280;66044;53.142;17.962;2023-04-30T09:14:56;101524.73;;;17.32;26.46
77019;BME280;66044;53.142;17.962;2023-04-30T09:17:24;101523.08;;;17.22;26.12
77019;BME280;66044;53.142;17.962;2023-04-30T09:19:51;101524.88;;;17.05;26.31
77019;BME280;66044;53.142;17.962;2023-04-30T09:22:22;101525.51;;;16.90;26.45
77019;BME280;66044;53.142;17.962;2023-04-30T09:24:50;101528.63;;;16.69;27.04
77019;BME280;66044;53.142;17.962;2023-04-30T09:27:18;101527.61;;;16.58;27.28
77019;BME280;66044;53.142;17.962;2023-04-30T09:29:45;101528.34;;;16.51;27.33
77019;BME280;66044;53.142;17.962;2023-04-30T09:32:12;101525.38;;;16.32;27.52
77019;BME280;66044;53.142;17.962;2023-04-30T09:34:39;101521.20;;;16.19;27.71
77019;BME280;66044;53.142;17.962;2023-04-30T09:37:06;101517.11;;;16.14;28.03
77019;BME280;66044;53.142;17.962;2023-04-30T09:39:32;101517.61;;;16.13;28.30
77019;BME280;66044;53.142;17.962;2023-04-30T09:42:09;101511.96;;;16.11;28.29
77019;BME280;66044;53.142;17.962;2023-04-30T09:44:38;101516.08;;;15.98;28.29
77019;BME280;66044;53.142;17.962;2023-04-30T09:47:10;101520.24;;;15.84;28.63
77019;BME280;66044;53.142;17.962;2023-04-30T09:49:40;101518.52;;;15.74;28.46
77019;BME280;66044;53.142;17.962;2023-04-30T09:52:07;101516.90;;;15.69;28.81
77019;BME280;66044;53.142;17.962;2023-04-30T09:54:34;101519.98;;;15.67;28.84
77019;BME280;66044;53.142;17.962;2023-04-30T09:57:01;101517.77;;;15.62;29.11
77019;BME280;66044;53.142;17.962;2023-04-30T09:59:30;101513.73;;;15.60;29.05
77019;BME280;66044;53.142;17.962;2023-04-30T10:02:02;101516.83;;;15.48;29.60
77019;BME280;66044;53.142;17.962;2023-04-30T10:04:32;101520.77;;;15.39;29.88
77019;BME280;66044;53.142;17.962;2023-04-30T10:07:03;101516.27;;;15.27;29.98
77019;BME280;66044;53.142;17.962;2023-04-30T10:09:36;101513.07;;;15.15;30.09
77019;BME280;66044;53.142;17.962;2023-04-30T10:12:13;101510.53;;;14.86;30.39
77019;BME280;66044;53.142;17.962;2023-04-30T10:14:46;101509.62;;;14.76;30.78
77019;BME280;66044;53.142;17.962;2023-04-30T10:17:15;101517.38;;;14.76;30.58
77019;BME280;66044;53.142;17.962;2023-04-30T10:19:45;101513.95;;;14.80;30.47
77019;BME280;66044;53.142;17.962;2023-04-30T10:22:13;101512.14;;;14.72;30.62
77019;BME280;66044;53.142;17.962;2023-04-30T10:24:41;101510.42;;;14.72;30.93
77019;BME280;66044;53.142;17.962;2023-04-30T10:27:10;101510.31;;;14.77;30.71
77019;BME280;66044;53.142;17.962;2023-04-30T10:29:37;101509.11;;;14.76;30.73
77019;BME280;66044;53.142;17.962;2023-04-30T10:32:05;101504.92;;;14.78;31.04
77019;BME280;66044;53.142;17.962;2023-04-30T10:37:06;101496.58;;;14.85;31.62
77019;BME280;66044;53.142;17.962;2023-04-30T10:39:36;101504.88;;;14.87;31.67
77019;BME280;66044;53.142;17.962;2023-04-30T10:42:06;101506.78;;;14.87;31.29
77019;BME280;66044;53.142;17.962;2023-04-30T10:44:36;101504.90;;;14.80;31.16
77019;BME280;66044;53.142;17.962;2023-04-30T10:47:04;101500.42;;;14.69;31.44
77019;BME280;66044;53.142;17.962;2023-04-30T10:49:31;101501.85;;;14.65;31.54
77019;BME280;66044;53.142;17.962;2023-04-30T10:51:59;101498.81;;;14.67;31.60
77019;BME280;66044;53.142;17.962;2023-04-30T10:54:28;101500.48;;;14.68;31.72
77019;BME280;66044;53.142;17.962;2023-04-30T10:57:15;101502.04;;;14.64;31.95
77019;BME280;66044;53.142;17.962;2023-04-30T11:02:39;101492.80;;;14.58;32.25
77019;BME280;66044;53.142;17.962;2023-04-30T11:07:33;101498.84;;;14.55;32.04
77019;BME280;66044;53.142;17.962;2023-04-30T11:10:00;101503.40;;;14.53;32.30
77019;BME280;66044;53.142;17.962;2023-04-30T11:12:28;101500.42;;;14.47;32.19
77019;BME280;66044;53.142;17.962;2023-04-30T11:15:03;101502.23;;;14.42;32.53
77019;BME280;66044;53.142;17.962;2023-04-30T11:17:31;101503.43;;;14.43;33.01
77019;BME280;66044;53.142;17.962;2023-04-30T11:19:59;101504.10;;;14.46;32.96
77019;BME280;66044;53.142;17.962;2023-04-30T11:22:27;101503.36;;;14.47;32.65
77019;BME280;66044;53.142;17.962;2023-04-30T11:27:29;101505.05;;;14.47;32.66
77019;BME280;66044;53.142;17.962;2023-04-30T11:29:57;101501.20;;;14.45;32.73
77019;BME280;66044;53.142;17.962;2023-04-30T11:32:26;101498.23;;;14.44;32.52
77019;BME280;66044;53.142;17.962;2023-04-30T11:34:56;101495.95;;;14.46;32.14
77019;BME280;66044;53.142;17.962;2023-04-30T11:37:30;101499.11;;;14.45;31.87
77019;BME280;66044;53.142;17.962;2023-04-30T11:40:05;101495.98;;;14.41;32.02
77019;BME280;66044;53.142;17.962;2023-04-30T11:42:33;101492.38;;;14.39;32.15
77019;BME280;66044;53.142;17.962;2023-04-30T11:45:07;101491.36;;;14.32;32.29
77019;BME280;66044;53.142;17.962;2023-04-30T11:47:44;101495.64;;;14.27;32.60
77019;BME280;66044;53.142;17.962;2023-04-30T11:50:13;101492.48;;;14.21;32.84
77019;BME280;66044;53.142;17.962;2023-04-30T11:52:41;101494.34;;;14.17;32.69
77019;BME280;66044;53.142;17.962;2023-04-30T11:55:13;101495.90;;;14.13;32.96
77019;BME280;66044;53.142;17.962;2023-04-30T11:57:45;101497.54;;;14.11;33.28
77019;BME280;66044;53.142;17.962;2023-04-30T12:00:14;101497.54;;;14.06;32.91
77019;BME280;66044;53.142;17.962;2023-04-30T12:02:43;101497.25;;;14.04;33.35
77019;BME280;66044;53.142;17.962;2023-04-30T12:05:15;101497.48;;;14.06;33.22
77019;BME280;66044;53.142;17.962;2023-04-30T12:08:02;101494.39;;;14.10;33.27
77019;BME280;66044;53.142;17.962;2023-04-30T12:10:32;101494.75;;;14.09;33.70
77019;BME280;66044;53.142;17.962;2023-04-30T12:12:59;101494.58;;;14.11;33.73
77019;BME280;66044;53.142;17.962;2023-04-30T12:15:26;101496.46;;;14.11;33.61
77019;BME280;66044;53.142;17.962;2023-04-30T12:17:58;101493.39;;;14.17;33.96
77019;BME280;66044;53.142;17.962;2023-04-30T12:20:29;101491.05;;;14.24;33.65
77019;BME280;66044;53.142;17.962;2023-04-30T12:22:57;101498.64;;;14.26;33.57
77019;BME280;66044;53.142;17.962;2023-04-30T12:25:24;101491.70;;;14.29;33.38
77019;BME280;66044;53.142;17.962;2023-04-30T12:27:53;101490.25;;;14.33;33.19
77019;BME280;66044;53.142;17.962;2023-04-30T12:30:24;101495.56;;;14.37;33.09
77019;BME280;66044;53.142;17.962;2023-04-30T12:32:58;101500.69;;;14.40;32.73
77019;BME280;66044;53.142;17.962;2023-04-30T12:35:27;101503.98;;;14.41;32.33
77019;BME280;66044;53.142;17.962;2023-04-30T12:38:05;101507.06;;;14.43;32.12
77019;BME280;66044;53.142;17.962;2023-04-30T12:40:32;101508.64;;;14.44;32.33
77019;BME280;66044;53.142;17.962;2023-04-30T12:43:08;101505.31;;;14.46;32.34
77019;BME280;66044;53.142;17.962;2023-04-30T12:48:08;101494.77;;;14.57;32.67
77019;BME280;66044;53.142;17.962;2023-04-30T12:50:35;101500.33;;;14.63;32.73
77019;BME280;66044;53.142;17.962;2023-04-30T12:53:03;101501.34;;;14.64;32.98
77019;BME280;66044;53.142;17.962;2023-04-30T12:55:30;101496.29;;;14.56;32.83
77019;BME280;66044;53.142;17.962;2023-04-30T12:58:10;101496.71;;;14.51;32.93
77019;BME280;66044;53.142;17.962;2023-04-30T13:03:12;101494.26;;;14.48;33.21
77019;BME280;66044;53.142;17.962;2023-04-30T13:05:40;101491.34;;;14.50;33.17
77019;BME280;66044;53.142;17.962;2023-04-30T13:08:07;101492.00;;;14.54;33.35
77019;BME280;66044;53.142;17.962;2023-04-30T13:10:34;101486.39;;;14.56;33.25
77019;BME280;66044;53.142;17.962;2023-04-30T13:13:01;101486.84;;;14.61;33.09
77019;BME280;66044;53.142;17.962;2023-04-30T13:15:27;101490.79;;;14.62;32.98
77019;BME280;66044;53.142;17.962;2023-04-30T13:17:54;101485.69;;;14.63;32.72
77019;BME280;66044;53.142;17.962;2023-04-30T13:20:21;101482.89;;;14.62;32.57